Data for 09/03/2018

Time Sea-Level Adjusted Pressure Absolute Pressure Temperature Relative Humidity Dew Point   
(mb) (inHg) (mb) (inHg) (C) (F) (%) (C) (F)
00:05 1019 30.09 848 25.04 11.5 52.7 54 2.5 36.4
00:10 1019 30.09 848 25.04 11.4 52.6 53 2.2 36
00:15 1019 30.09 848 25.04 11.5 52.8 50 1.6 34.8
00:20 1019 30.09 848 25.04 12 53.6 45 0.6 33
00:25 1019 30.09 848 25.04 12.6 54.6 43 0.4 32.8
00:30 1019 30.09 848 25.04 12.7 54.8 45 1.2 34.2
00:35 1019 30.09 848 25.04 12.4 54.4 43 0.3 32.6
00:40 1019 30.09 848 25.04 12.7 54.9 42 0.2 32.3
00:45 1019 30.09 848 25.04 12.9 55.2 43 0.5 32.9
00:50 1019 30.09 849 25.07 12.7 54.9 44 0.9 33.6
00:55 1019 30.09 849 25.07 12.6 54.7 46 1.3 34.3
01:00 1019 30.09 849 25.07 12.3 54.1 47 1.4 34.6
01:05 1019 30.09 848 25.04 12.1 53.7 46 0.9 33.7
01:10 1019 30.09 848 25.04 12.3 54.1 47 1.4 34.6
01:15 1019 30.09 848 25.04 12 53.6 46 0.9 33.6
01:20 1019 30.09 848 25.04 12.1 53.7 43 0 32.1
01:25 1019 30.09 848 25.04 12.2 53.9 43 -0.1 31.8
01:30 1019 30.09 848 25.04 12.1 53.8 44 0.3 32.5
01:35 1019 30.09 848 25.04 11.8 53.3 45 0.2 32.4
01:40 1019 30.09 848 25.04 11.8 53.2 44 -0.1 31.9
01:45 1019 30.09 848 25.04 11.8 53.3 44 0.1 32.1
01:50 1019 30.09 848 25.04 11.7 53 45 0.1 32.3
01:55 1019 30.09 848 25.04 11.7 53.1 43 -0.3 31.5
02:00 1019 30.09 848 25.04 11.5 52.6 47 0.5 32.8
02:05 1019 30.09 848 25.04 11.4 52.6 45 -0.1 31.9
02:10 1019 30.09 848 25.04 12 53.6 41 -0.7 30.8
02:15 1019 30.09 848 25.04 12.6 54.6 40 -0.6 30.9
02:20 1019 30.09 848 25.04 12.5 54.4 43 0.3 32.6
02:25 1019 30.09 848 25.04 11.9 53.5 44 0 32.1
02:30 1019 30.09 848 25.04 11.9 53.4 45 0.3 32.5
02:35 1019 30.09 848 25.04 12.1 53.8 45 0.6 33.1
02:40 1019 30.09 848 25.04 11.9 53.5 44 0.2 32.3
02:45 1019 30.09 848 25.04 12.1 53.8 44 0.4 32.7
02:50 1019 30.09 848 25.04 11.8 53.2 49 1.4 34.5
02:55 1019 30.09 848 25.04 11.3 52.3 48 0.7 33.2
03:00 1019 30.09 848 25.04 11.5 52.7 46 0.3 32.6
03:05 1019 30.09 848 25.04 11.7 53.1 46 0.7 33.2
03:10 1019 30.09 848 25.04 11.9 53.5 44 0 32.1
03:15 1019 30.09 848 25.04 12 53.6 43 -0.2 31.6
03:20 1019 30.09 848 25.04 12.4 54.4 40 -0.8 30.6
03:25 1019 30.09 848 25.04 12.4 54.3 45 0.9 33.5
03:30 1019 30.09 848 25.04 11.9 53.4 45 0.4 32.8
03:35 1019 30.09 848 25.04 11.6 52.9 47 0.8 33.4
03:40 1019 30.09 848 25.04 11.3 52.4 49 1.1 34.1
03:45 1019 30.09 848 25.04 11 51.9 50 1.1 33.9
03:50 1019 30.09 848 25.04 10.7 51.3 51 1.1 33.9
03:55 1019 30.09 848 25.04 10.7 51.3 51 1 33.8
04:00 1019 30.09 848 25.04 10.7 51.2 51 1 33.9
04:05 1019 30.09 848 25.04 10.6 51 51 0.8 33.5
04:10 1019 30.09 848 25.04 10.7 51.2 51 0.9 33.6
04:15 1019 30.09 848 25.04 10.6 51.1 52 1.2 34.1
04:20 1019 30.09 848 25.04 10.3 50.5 53 1.1 34
04:25 1019 30.09 848 25.04 10.1 50.2 54 1.2 34.1
04:30 1019 30.09 848 25.04 9.9 49.8 55 1.4 34.4
04:35 1019 30.09 848 25.04 9.8 49.7 51 0.2 32.4
04:40 1019 30.09 848 25.04 10.4 50.7 49 0.3 32.6
04:45 1019 30.09 848 25.04 10.5 50.9 48 -0 31.9
04:50 1019 30.09 848 25.04 10.5 50.8 48 0.1 32.1
04:55 1019 30.09 848 25.04 10.4 50.7 50 0.5 33
05:00 1019 30.09 848 25.04 10 50 51 0.4 32.6
05:05 1019 30.09 848 25.04 10 50.1 50 0.1 32.2
05:10 1019 30.09 848 25.04 10.1 50.2 51 0.5 32.8
05:15 1019 30.09 848 25.04 9.9 49.9 51 0.3 32.5
05:20 1019 30.09 848 25.04 10.1 50.1 50 0.2 32.4
05:25 1019 30.09 848 25.04 10.1 50.2 50 0.2 32.4
05:30 1019 30.09 848 25.04 10 50 50 0.1 32.3
05:35 1019 30.09 848 25.04 10.1 50.2 49 0 32.1
05:40 1019 30.09 848 25.04 10.2 50.4 50 0.2 32.4
05:45 1019 30.09 848 25.04 10.1 50.1 51 0.4 32.7
05:50 1019 30.09 848 25.04 9.8 49.6 52 0.4 32.8
05:55 1019 30.09 848 25.04 9.7 49.4 52 0.2 32.4
06:00 1019 30.09 848 25.04 10 49.9 51 0.2 32.4
06:05 1019 30.09 848 25.04 9.9 49.8 52 0.5 33
06:10 1019 30.09 848 25.04 9.8 49.6 52 0.5 33
06:15 1019 30.09 848 25.04 9.7 49.5 51 0.1 32.2
06:20 1019 30.09 848 25.04 9.9 49.8 51 0.2 32.4
06:25 1019 30.09 848 25.04 10 49.9 52 0.6 33
06:30 1019 30.09 848 25.04 9.8 49.7 53 0.8 33.4
06:35 1019 30.09 848 25.04 9.2 48.5 56 1 33.8
06:40 1019 30.09 848 25.04 8.9 48.1 55 0.5 32.8
06:45 1019 30.09 848 25.04 9.3 48.7 53 0.1 32.3
06:50 1019 30.09 848 25.04 9.3 48.8 54 0.5 33
06:55 1019 30.09 848 25.04 9.2 48.5 53 0.1 32.1
07:00 1019 30.09 848 25.04 9.2 48.6 54 0.4 32.8
07:05 1019 30.09 849 25.07 9.5 49.1 51 -0.2 31.7
07:10 1019 30.09 849 25.07 9.7 49.4 53 0.7 33.3
07:15 1019 30.09 849 25.07 9.4 48.9 52 0.2 32.3
07:20 1019 30.09 849 25.07 9.5 49.2 52 0.3 32.6
07:25 1019 30.09 849 25.07 9.6 49.2 52 0.3 32.5
07:30 1019 30.09 849 25.07 9.8 49.6 50 -0.1 31.8
07:35 1019 30.09 849 25.07 10.2 50.3 50 0.1 32.3
07:40 1019 30.09 849 25.07 10.4 50.7 48 0 32.1
07:45 1019 30.09 849 25.07 10.4 50.8 49 0.3 32.5
07:50 1019 30.09 849 25.07 10.5 50.9 49 0.3 32.6
07:55 1020 30.12 849 25.07 10.6 51.1 51 0.9 33.6
08:00 1020 30.12 849 25.07 10.4 50.6 51 0.8 33.4
08:05 1020 30.12 849 25.07 10.5 51 50 0.6 33
08:10 1020 30.12 849 25.07 11 51.7 48 0.5 32.9
08:15 1020 30.12 849 25.07 11.5 52.8 46 0.4 32.8
08:20 1020 30.12 849 25.07 12.1 53.7 46 0.8 33.4
08:25 1020 30.12 849 25.07 12.4 54.4 46 1.1 34
08:30 1020 30.12 849 25.07 12.9 55.3 45 1.2 34.2
08:35 1020 30.12 849 25.07 13.4 56.1 43 1.1 34
08:40 1020 30.12 849 25.07 13.8 56.8 41 1 33.8
08:45 1020 30.12 849 25.07 14.6 58.4 40 1.3 34.4
08:50 1020 30.12 849 25.07 15.2 59.4 38 1.2 34.2
08:55 1020 30.12 849 25.07 15.7 60.2 38 1.5 34.7
09:00 1020 30.12 849 25.07 15.6 60.2 40 2 35.7
09:05 1020 30.12 849 25.07 15.9 60.7 36 1 33.9
09:10 1020 30.12 849 25.07 16 60.9 36 1.1 34
09:15 1020 30.12 849 25.07 16.1 61 35 0.7 33.2
09:20 1020 30.12 849 25.07 16 60.9 38 1.7 35
09:25 1020 30.12 849 25.07 16 60.8 38 1.8 35.2
09:30 1020 30.12 849 25.07 16.5 61.7 34 0.8 33.4
09:35 1020 30.12 849 25.07 16.9 62.4 34 1 33.8
09:40 1020 30.12 849 25.07 16.4 61.4 34 0.6 33.2
09:45 1020 30.12 849 25.07 16.7 62 33 0.5 33
09:50 1020 30.12 849 25.07 17.3 63.1 34 1.2 34.2
09:55 1020 30.12 849 25.07 17.9 64.2 32 1.1 34
10:00 1020 30.12 849 25.07 18.4 65.2 31 1 33.8
10:05 1020 30.12 849 25.07 18.5 65.2 33 2 35.6
10:10 1020 30.12 849 25.07 18.9 66.1 31 1.4 34.5
10:15 1020 30.12 849 25.07 19.2 66.5 31 1.7 35.1
10:20 1019 30.09 849 25.07 19.5 67.1 30 1.7 35
10:25 1019 30.09 849 25.07 19.9 67.8 26 0.1 32.2
10:30 1019 30.09 849 25.07 20.3 68.5 26 0.5 32.9
10:35 1019 30.09 849 25.07 20 68 27 0.4 32.7
10:40 1019 30.09 849 25.07 19.4 66.9 27 -0 31.9
10:45 1019 30.09 849 25.07 19.2 66.6 28 0.2 32.3
10:50 1019 30.09 849 25.07 19.5 67.2 28 0.6 33
10:55 1019 30.09 849 25.07 19.5 67 28 0.4 32.7
11:00 1019 30.09 849 25.07 19.7 67.5 26 -0.2 31.6
11:05 1019 30.09 849 25.07 19.8 67.6 26 -0.3 31.5
11:10 1019 30.09 848 25.04 19.7 67.5 27 0.4 32.7
11:15 1019 30.09 848 25.04 20.1 68.1 25 -0.5 31.2
11:20 1019 30.09 848 25.04 20.8 69.4 23 -1 30.2
11:25 1019 30.09 848 25.04 20.4 68.7 25 -0 31.9
11:30 1019 30.09 848 25.04 21.2 70.1 26 0.9 33.5
11:35 1019 30.09 848 25.04 21.2 70.2 25 0.3 32.6
11:40 1019 30.09 848 25.04 20.6 69.1 25 0.2 32.3
11:45 1019 30.09 848 25.04 21.3 70.3 24 0 32
11:50 1019 30.09 848 25.04 21.8 71.3 24 0.4 32.8
11:55 1019 30.09 848 25.04 22.3 72.1 24 0.7 33.2
12:00 1019 30.09 848 25.04 22.1 71.7 21 -1.1 30.1
12:05 1019 30.09 848 25.04 21.2 70.2 24 0 32
12:10 1019 30.09 848 25.04 21.6 70.8 22 -0.7 30.7
12:15 1019 30.09 848 25.04 21.6 70.8 23 -0.3 31.4
12:20 1019 30.09 848 25.04 21.7 71 24 0.6 33.2
12:25 1019 30.09 848 25.04 22.3 72.2 21 -0.7 30.8
12:30 1019 30.09 848 25.04 22.7 72.9 22 0.3 32.5
12:35 1019 30.09 848 25.04 22.9 73.2 21 -0.7 30.8
12:40 1019 30.09 848 25.04 22.6 72.6 23 0.3 32.6
12:45 1019 30.09 848 25.04 22.7 72.8 20 -1.2 29.9
12:50 1019 30.09 848 25.04 23.2 73.7 20 -0.7 30.7
12:55 1019 30.09 848 25.04 23.7 74.7 19 -1.3 29.7
13:00 1019 30.09 848 25.04 23.6 74.4 20 -0.4 31.2
13:05 1019 30.09 848 25.04 24 75.1 20 -0.4 31.3
13:10 1019 30.09 848 25.04 23.9 75 19 -1 30.2
13:15 1018 30.06 848 25.04 23.3 74 21 -0.2 31.7
13:20 1019 30.09 848 25.04 23.9 75.1 19 -1.1 30
13:25 1018 30.06 848 25.04 24 75.2 19 -0.9 30.4
13:30 1018 30.06 848 25.04 24.4 75.8 19 -0.4 31.3
13:35 1019 30.09 848 25.04 24.4 75.9 18 -1.5 29.3
13:40 1019 30.09 848 25.04 24.5 76.1 18 -1.3 29.6
13:45 1018 30.06 848 25.04 24.2 75.6 18 -1.6 29
13:50 1018 30.06 848 25.04 23.5 74.2 20 -0.5 31.1
13:55 1018 30.06 848 25.04 24.3 75.7 17 -1.7 28.9
14:00 1018 30.06 848 25.04 24.8 76.7 19 -0.3 31.4
14:05 1018 30.06 848 25.04 24.9 76.8 17 -1.7 28.9
14:10 1018 30.06 847 25.01 24.9 76.7 18 -1.2 29.8
14:15 1018 30.06 847 25.01 24.7 76.5 18 -1.1 30
14:20 1018 30.06 847 25.01 25 77 18 -0.9 30.4
14:25 1018 30.06 847 25.01 25.5 77.8 16 -1.9 28.5
14:30 1018 30.06 847 25.01 25.7 78.2 16 -2.1 28.3
14:35 1018 30.06 847 25.01 26.1 78.9 16 -1.4 29.5
14:40 1018 30.06 847 25.01 26 78.8 16 -1.9 28.5
14:45 1018 30.06 847 25.01 26.2 79.1 15 -2.6 27.3
14:50 1018 30.06 847 25.01 26.3 79.3 15 -2.3 27.9
14:55 1018 30.06 847 25.01 25.7 78.3 15 -2.9 26.8
15:00 1018 30.06 847 25.01 25.5 77.9 17 -1.3 29.7
15:05 1018 30.06 847 25.01 26.3 79.4 16 -1.6 29.1
15:10 1018 30.06 847 25.01 26 78.8 16 -1.7 29
15:15 1018 30.06 847 25.01 25.7 78.3 17 -1.3 29.7
15:20 1018 30.06 847 25.01 25.9 78.7 15 -2.3 27.8
15:25 1018 30.06 847 25.01 26.4 79.5 15 -2 28.4
15:30 1018 30.06 847 25.01 26.7 80 16 -1.3 29.6
15:35 1018 30.06 847 25.01 26.3 79.3 15 -2.4 27.7
15:40 1018 30.06 847 25.01 25.2 77.4 17 -1.4 29.5
15:45 1018 30.06 847 25.01 24.6 76.3 16 -2.4 27.7
15:50 1018 30.06 847 25.01 24.8 76.7 17 -2 28.4
15:55 1018 30.06 847 25.01 25.7 78.2 15 -2.4 27.7
16:00 1018 30.06 847 25.01 26.3 79.4 15 -2.4 27.6
16:05 1018 30.06 847 25.01 25.7 78.3 17 -1.2 29.8
16:10 1018 30.06 847 25.01 24.9 76.9 16 -2.2 28.1
16:15 1018 30.06 847 25.01 25.2 77.3 16 -2.4 27.7
16:20 1018 30.06 847 25.01 25.7 78.2 16 -2.2 28
16:25 1018 30.06 847 25.01 24.7 76.4 17 -1.9 28.6
16:30 1018 30.06 847 25.01 24.9 76.9 17 -1.8 28.8
16:35 1018 30.06 847 25.01 25.8 78.4 15 -2.4 27.8
16:40 1018 30.06 847 25.01 25.4 77.7 17 -1.4 29.4
16:45 1018 30.06 847 25.01 24.7 76.4 17 -1.4 29.4
16:50 1018 30.06 847 25.01 24.9 76.9 16 -2.5 27.5
16:55 1018 30.06 847 25.01 25.1 77.2 15 -2.7 27.2
17:00 1018 30.06 847 25.01 25.5 77.9 17 -1.4 29.6
17:05 1018 30.06 847 25.01 25.8 78.5 16 -2.1 28.3
17:10 1018 30.06 847 25.01 25.9 78.6 15 -2.5 27.5
17:15 1018 30.06 847 25.01 26.2 79.1 15 -2.7 27.2
17:20 1018 30.06 847 25.01 26.4 79.5 15 -2.3 27.8
17:25 1018 30.06 847 25.01 26.3 79.3 15 -2.5 27.4
17:30 1018 30.06 847 25.01 25.9 78.5 15 -2.5 27.6
17:35 1018 30.06 847 25.01 26.4 79.6 14 -2.7 27.2
17:40 1018 30.06 847 25.01 26.6 80 14 -2.5 27.4
17:45 1018 30.06 847 25.01 26.5 79.7 14 -3 26.6
17:50 1018 30.06 847 25.01 25.9 78.6 15 -2.6 27.4
17:55 1018 30.06 847 25.01 25.5 78 15 -3.1 26.5
18:00 1018 30.06 847 25.01 25.8 78.5 14 -3.4 25.9
18:05 1018 30.06 847 25.01 26 78.8 15 -2.1 28.2
18:10 1018 30.06 847 25.01 26.2 79.2 14 -2.7 27.1
18:15 1018 30.06 847 25.01 26 78.7 15 -2.6 27.3
18:20 1018 30.06 847 25.01 25.5 77.9 14 -3.3 26.1
18:25 1018 30.06 847 25.01 25.3 77.5 15 -2.9 26.8
18:30 1018 30.06 847 25.01 25.3 77.5 15 -3.4 26
18:35 1018 30.06 847 25.01 25.1 77.2 15 -3.5 25.7
18:40 1018 30.06 847 25.01 25 77.1 15 -3.2 26.2
18:45 1018 30.06 847 25.01 25 76.9 17 -1.6 29.2
18:50 1018 30.06 847 25.01 24.6 76.3 18 -1 30.1
18:55 1018 30.06 847 25.01 24.4 76 17 -1.7 28.9
19:00 1018 30.06 847 25.01 24.2 75.6 18 -1.4 29.5
19:05 1018 30.06 847 25.01 24.2 75.6 18 -1.5 29.3
19:10 1018 30.06 847 25.01 24.1 75.5 20 -0 31.9
19:15 1018 30.06 847 25.01 24 75.2 22 1.5 34.7
19:20 1018 30.06 847 25.01 23.7 74.7 24 2.3 36.2
19:25 1018 30.06 847 25.01 23.5 74.3 22 0.7 33.2
19:30 1018 30.06 847 25.01 23.3 73.9 23 1.2 34.1
19:35 1018 30.06 847 25.01 23.1 73.7 24 1.6 34.9
19:40 1018 30.06 847 25.01 22.9 73.3 26 2.6 36.6
19:45 1018 30.06 847 25.01 22.6 72.6 27 2.7 36.9
19:50 1018 30.06 847 25.01 22 71.6 28 3.1 37.6
19:55 1018 30.06 847 25.01 21.6 70.8 31 3.8 38.8
20:00 1018 30.06 847 25.01 20.9 69.6 32 3.8 38.9
20:05 1018 30.06 847 25.01 20.1 68.2 33 3.4 38.1
20:10 1018 30.06 847 25.01 19.6 67.3 32 2.5 36.6
20:15 1018 30.06 847 25.01 19.4 66.8 32 2.3 36.2
20:20 1018 30.06 848 25.04 19 66.1 38 4.4 39.9
20:25 1018 30.06 848 25.04 18.8 65.9 34 3 37.4
20:30 1019 30.09 848 25.04 19 66.2 31 1.8 35.3
20:35 1019 30.09 848 25.04 19.7 67.4 31 2 35.7
20:40 1019 30.09 848 25.04 19.8 67.7 32 3 37.4
20:45 1019 30.09 848 25.04 19.2 66.6 34 3.1 37.5
20:50 1019 30.09 848 25.04 18.3 65 35 2.8 37
20:55 1019 30.09 848 25.04 17.9 64.2 36 2.7 36.8
21:00 1019 30.09 848 25.04 17.7 63.8 35 2 35.5
21:05 1019 30.09 848 25.04 17.6 63.6 37 2.6 36.8
21:10 1019 30.09 848 25.04 17 62.6 40 3.5 38.4
21:15 1019 30.09 848 25.04 16.1 61 41 2.8 37
21:20 1019 30.09 848 25.04 15.8 60.5 42 3 37.4
21:25 1019 30.09 848 25.04 15.7 60.2 40 2.4 36.2
21:30 1019 30.09 848 25.04 16 60.8 38 1.6 34.9
21:35 1019 30.09 849 25.07 16.6 61.9 35 1.2 34.2
21:40 1019 30.09 849 25.07 16.7 62 35 1.3 34.3
21:45 1019 30.09 849 25.07 16.6 61.8 36 1.6 34.8
21:50 1019 30.09 849 25.07 16.4 61.4 36 1.4 34.5
21:55 1019 30.09 849 25.07 16.1 61.1 36 1.3 34.4
22:00 1020 30.12 849 25.07 16 60.7 38 1.7 35.1
22:05 1020 30.12 849 25.07 15.6 60 36 0.8 33.5
22:10 1020 30.12 849 25.07 16.2 61.1 36 1.3 34.3
22:15 1020 30.12 849 25.07 15.5 59.9 39 1.8 35.2
22:20 1020 30.12 849 25.07 15.1 59.2 41 1.9 35.5
22:25 1020 30.12 849 25.07 14.7 58.5 42 2.2 35.9
22:30 1020 30.12 849 25.07 14.4 57.9 41 1.5 34.7
22:35 1020 30.12 849 25.07 15.3 59.5 35 -0.1 31.9
22:40 1020 30.12 849 25.07 15.8 60.4 36 0.9 33.6
22:45 1020 30.12 850 25.1 15.4 59.8 40 1.9 35.4
22:50 1020 30.12 850 25.1 15.2 59.3 42 2.3 36.1
22:55 1020 30.12 850 25.1 15.1 59.3 42 2.3 36.1
23:00 1020 30.12 849 25.07 15.3 59.6 40 2 35.5
23:05 1020 30.12 850 25.1 15.5 60 39 1.8 35.2
23:10 1020 30.12 850 25.1 15.3 59.6 41 2.1 35.8
23:15 1021 30.15 850 25.1 14.8 58.6 40 1.3 34.3
23:20 1021 30.15 850 25.1 15.1 59.1 37 0.7 33.3
23:25 1021 30.15 850 25.1 15.3 59.6 38 1.1 34
23:30 1021 30.15 850 25.1 15.6 60 38 1.4 34.5
23:35 1021 30.15 850 25.1 15.5 59.8 37 1.1 34
23:40 1021 30.15 850 25.1 15.6 60.1 37 0.9 33.6
23:45 1021 30.15 850 25.1 16 60.8 35 0.7 33.3
23:50 1021 30.15 850 25.1 15.6 60.1 38 1.5 34.6
23:55 1021 30.15 850 25.1 15.4 59.8 39 1.5 34.7
24:00 1021 30.15 850 25.1 14.8 58.7 41 1.7 35.1